sensor_id;sensor_type;location;lat;lon;timestamp;P1;durP1;ratioP1;P2;durP2;ratioP2
56045;SDS011;41913;51.030;3.706;2023-09-12T00:01:16;6.95;;;6.22;;
56045;SDS011;41913;51.030;3.706;2023-09-12T00:03:42;7.68;;;6.22;;
56045;SDS011;41913;51.030;3.706;2023-09-12T00:06:07;7.22;;;6.05;;
56045;SDS011;41913;51.030;3.706;2023-09-12T00:08:33;8.55;;;6.45;;
56045;SDS011;41913;51.030;3.706;2023-09-12T00:11:03;6.55;;;5.95;;
56045;SDS011;41913;51.030;3.706;2023-09-12T00:13:36;5.95;;;5.38;;
56045;SDS011;41913;51.030;3.706;2023-09-12T00:16:07;6.10;;;5.68;;
56045;SDS011;41913;51.030;3.706;2023-09-12T00:18:36;5.32;;;4.90;;
56045;SDS011;41913;51.030;3.706;2023-09-12T00:21:03;7.72;;;6.90;;
56045;SDS011;41913;51.030;3.706;2023-09-12T00:23:29;9.63;;;6.63;;
56045;SDS011;41913;51.030;3.706;2023-09-12T00:25:56;9.02;;;6.43;;
56045;SDS011;41913;51.030;3.706;2023-09-12T00:28:22;6.47;;;5.85;;
56045;SDS011;41913;51.030;3.706;2023-09-12T00:30:48;6.95;;;6.32;;
56045;SDS011;41913;51.030;3.706;2023-09-12T00:33:13;7.93;;;6.07;;
56045;SDS011;41913;51.030;3.706;2023-09-12T00:35:39;7.63;;;6.53;;
56045;SDS011;41913;51.030;3.706;2023-09-12T00:38:05;7.43;;;6.72;;
56045;SDS011;41913;51.030;3.706;2023-09-12T00:40:32;6.82;;;6.13;;
56045;SDS011;41913;51.030;3.706;2023-09-12T00:42:58;7.22;;;6.60;;
56045;SDS011;41913;51.030;3.706;2023-09-12T00:45:25;6.85;;;5.45;;
56045;SDS011;41913;51.030;3.706;2023-09-12T00:47:51;9.52;;;6.40;;
56045;SDS011;41913;51.030;3.706;2023-09-12T00:50:17;13.95;;;7.82;;
56045;SDS011;41913;51.030;3.706;2023-09-12T00:52:46;10.30;;;7.20;;
56045;SDS011;41913;51.030;3.706;2023-09-12T00:55:13;8.48;;;7.68;;
56045;SDS011;41913;51.030;3.706;2023-09-12T00:57:39;9.52;;;8.63;;
56045;SDS011;41913;51.030;3.706;2023-09-12T01:00:06;10.90;;;7.82;;
56045;SDS011;41913;51.030;3.706;2023-09-12T01:02:40;13.03;;;7.93;;
56045;SDS011;41913;51.030;3.706;2023-09-12T01:05:08;8.68;;;7.82;;
56045;SDS011;41913;51.030;3.706;2023-09-12T01:07:35;9.32;;;8.32;;
56045;SDS011;41913;51.030;3.706;2023-09-12T01:10:01;9.07;;;7.78;;
56045;SDS011;41913;51.030;3.706;2023-09-12T01:12:28;8.70;;;7.85;;
56045;SDS011;41913;51.030;3.706;2023-09-12T01:14:55;9.77;;;7.55;;
56045;SDS011;41913;51.030;3.706;2023-09-12T01:17:21;12.00;;;8.32;;
56045;SDS011;41913;51.030;3.706;2023-09-12T01:19:47;10.75;;;8.55;;
56045;SDS011;41913;51.030;3.706;2023-09-12T01:25:07;10.15;;;7.93;;
56045;SDS011;41913;51.030;3.706;2023-09-12T01:27:37;8.68;;;7.57;;
56045;SDS011;41913;51.030;3.706;2023-09-12T01:30:08;9.15;;;8.30;;
56045;SDS011;41913;51.030;3.706;2023-09-12T01:32:35;9.65;;;7.25;;
56045;SDS011;41913;51.030;3.706;2023-09-12T01:35:02;9.75;;;8.75;;
56045;SDS011;41913;51.030;3.706;2023-09-12T01:37:31;10.60;;;8.10;;
56045;SDS011;41913;51.030;3.706;2023-09-12T01:39:57;10.35;;;8.80;;
56045;SDS011;41913;51.030;3.706;2023-09-12T01:42:24;13.40;;;8.88;;
56045;SDS011;41913;51.030;3.706;2023-09-12T01:44:56;9.25;;;8.35;;
56045;SDS011;41913;51.030;3.706;2023-09-12T01:47:23;11.57;;;9.13;;
56045;SDS011;41913;51.030;3.706;2023-09-12T01:49:52;10.23;;;8.80;;
56045;SDS011;41913;51.030;3.706;2023-09-12T01:52:21;9.35;;;8.25;;
56045;SDS011;41913;51.030;3.706;2023-09-12T01:54:47;8.85;;;7.95;;
56045;SDS011;41913;51.030;3.706;2023-09-12T01:57:14;10.18;;;8.30;;
56045;SDS011;41913;51.030;3.706;2023-09-12T01:59:40;10.77;;;9.20;;
56045;SDS011;41913;51.030;3.706;2023-09-12T02:02:07;9.85;;;8.80;;
56045;SDS011;41913;51.030;3.706;2023-09-12T02:04:32;9.52;;;8.63;;
56045;SDS011;41913;51.030;3.706;2023-09-12T02:06:58;11.27;;;8.90;;
56045;SDS011;41913;51.030;3.706;2023-09-12T02:09:24;9.40;;;8.48;;
56045;SDS011;41913;51.030;3.706;2023-09-12T02:11:50;10.80;;;7.45;;
56045;SDS011;41913;51.030;3.706;2023-09-12T02:14:16;10.60;;;8.95;;
56045;SDS011;41913;51.030;3.706;2023-09-12T02:16:45;9.95;;;8.95;;
56045;SDS011;41913;51.030;3.706;2023-09-12T02:19:11;10.95;;;7.55;;
56045;SDS011;41913;51.030;3.706;2023-09-12T02:21:36;11.77;;;9.93;;
56045;SDS011;41913;51.030;3.706;2023-09-12T02:24:02;10.95;;;8.52;;
56045;SDS011;41913;51.030;3.706;2023-09-12T02:26:28;9.48;;;8.48;;
56045;SDS011;41913;51.030;3.706;2023-09-12T02:28:53;8.50;;;7.65;;
56045;SDS011;41913;51.030;3.706;2023-09-12T02:31:19;10.48;;;8.48;;
56045;SDS011;41913;51.030;3.706;2023-09-12T02:33:45;14.20;;;10.18;;
56045;SDS011;41913;51.030;3.706;2023-09-12T02:36:10;9.25;;;8.35;;
56045;SDS011;41913;51.030;3.706;2023-09-12T02:38:36;13.65;;;9.40;;
56045;SDS011;41913;51.030;3.706;2023-09-12T02:41:02;9.70;;;8.80;;
56045;SDS011;41913;51.030;3.706;2023-09-12T02:43:28;10.73;;;9.40;;
56045;SDS011;41913;51.030;3.706;2023-09-12T02:45:54;9.52;;;8.63;;
56045;SDS011;41913;51.030;3.706;2023-09-12T02:48:20;11.15;;;8.77;;
56045;SDS011;41913;51.030;3.706;2023-09-12T02:50:46;9.90;;;8.90;;
56045;SDS011;41913;51.030;3.706;2023-09-12T02:53:11;13.95;;;9.52;;
56045;SDS011;41913;51.030;3.706;2023-09-12T02:55:41;12.70;;;9.10;;
56045;SDS011;41913;51.030;3.706;2023-09-12T02:58:07;11.85;;;9.43;;
56045;SDS011;41913;51.030;3.706;2023-09-12T03:00:37;11.23;;;9.13;;
56045;SDS011;41913;51.030;3.706;2023-09-12T03:03:04;10.90;;;8.35;;
56045;SDS011;41913;51.030;3.706;2023-09-12T03:05:30;10.05;;;9.05;;
56045;SDS011;41913;51.030;3.706;2023-09-12T03:07:56;12.50;;;9.40;;
56045;SDS011;41913;51.030;3.706;2023-09-12T03:10:22;10.10;;;8.20;;
56045;SDS011;41913;51.030;3.706;2023-09-12T03:12:47;11.60;;;8.82;;
56045;SDS011;41913;51.030;3.706;2023-09-12T03:15:13;10.07;;;9.13;;
56045;SDS011;41913;51.030;3.706;2023-09-12T03:17:39;11.98;;;9.68;;
56045;SDS011;41913;51.030;3.706;2023-09-12T03:20:05;10.40;;;8.80;;
56045;SDS011;41913;51.030;3.706;2023-09-12T03:22:33;14.27;;;8.95;;
56045;SDS011;41913;51.030;3.706;2023-09-12T03:25:04;13.00;;;8.73;;
56045;SDS011;41913;51.030;3.706;2023-09-12T03:27:31;11.02;;;9.00;;
56045;SDS011;41913;51.030;3.706;2023-09-12T03:29:57;10.75;;;8.75;;
56045;SDS011;41913;51.030;3.706;2023-09-12T03:32:23;11.52;;;8.32;;
56045;SDS011;41913;51.030;3.706;2023-09-12T03:34:49;11.15;;;8.57;;
56045;SDS011;41913;51.030;3.706;2023-09-12T03:37:14;12.23;;;8.57;;
56045;SDS011;41913;51.030;3.706;2023-09-12T03:39:40;11.75;;;9.00;;
56045;SDS011;41913;51.030;3.706;2023-09-12T03:42:06;10.85;;;8.38;;
56045;SDS011;41913;51.030;3.706;2023-09-12T03:44:32;10.18;;;9.18;;
56045;SDS011;41913;51.030;3.706;2023-09-12T03:46:57;12.80;;;8.82;;
56045;SDS011;41913;51.030;3.706;2023-09-12T03:49:23;10.13;;;9.00;;
56045;SDS011;41913;51.030;3.706;2023-09-12T03:51:49;9.95;;;8.43;;
56045;SDS011;41913;51.030;3.706;2023-09-12T03:54:15;11.95;;;9.18;;
56045;SDS011;41913;51.030;3.706;2023-09-12T03:56:40;13.50;;;8.98;;
56045;SDS011;41913;51.030;3.706;2023-09-12T03:59:06;12.30;;;8.88;;
56045;SDS011;41913;51.030;3.706;2023-09-12T04:01:32;10.13;;;7.90;;
56045;SDS011;41913;51.030;3.706;2023-09-12T04:03:58;11.48;;;8.10;;
56045;SDS011;41913;51.030;3.706;2023-09-12T04:06:24;10.00;;;9.02;;
56045;SDS011;41913;51.030;3.706;2023-09-12T04:08:50;10.15;;;8.88;;
56045;SDS011;41913;51.030;3.706;2023-09-12T04:11:16;14.82;;;9.07;;
56045;SDS011;41913;51.030;3.706;2023-09-12T04:13:41;10.93;;;8.70;;
56045;SDS011;41913;51.030;3.706;2023-09-12T04:16:07;12.00;;;9.93;;
56045;SDS011;41913;51.030;3.706;2023-09-12T04:18:33;10.70;;;9.60;;
56045;SDS011;41913;51.030;3.706;2023-09-12T04:20:58;9.90;;;8.43;;
56045;SDS011;41913;51.030;3.706;2023-09-12T04:23:25;12.65;;;9.88;;
56045;SDS011;41913;51.030;3.706;2023-09-12T04:25:50;11.43;;;9.05;;
56045;SDS011;41913;51.030;3.706;2023-09-12T04:28:16;10.65;;;9.55;;
56045;SDS011;41913;51.030;3.706;2023-09-12T04:30:42;15.50;;;9.45;;
56045;SDS011;41913;51.030;3.706;2023-09-12T04:33:09;11.57;;;10.48;;
56045;SDS011;41913;51.030;3.706;2023-09-12T04:35:34;14.02;;;9.48;;
56045;SDS011;41913;51.030;3.706;2023-09-12T04:38:01;15.52;;;9.23;;
56045;SDS011;41913;51.030;3.706;2023-09-12T04:40:27;13.98;;;9.60;;
56045;SDS011;41913;51.030;3.706;2023-09-12T04:42:53;9.23;;;7.75;;
56045;SDS011;41913;51.030;3.706;2023-09-12T04:45:19;14.27;;;10.20;;
56045;SDS011;41913;51.030;3.706;2023-09-12T04:47:44;11.63;;;8.65;;
56045;SDS011;41913;51.030;3.706;2023-09-12T04:50:10;13.65;;;9.40;;
56045;SDS011;41913;51.030;3.706;2023-09-12T04:52:40;11.38;;;9.65;;
56045;SDS011;41913;51.030;3.706;2023-09-12T04:55:06;14.27;;;10.25;;
56045;SDS011;41913;51.030;3.706;2023-09-12T04:57:32;11.10;;;9.35;;
56045;SDS011;41913;51.030;3.706;2023-09-12T04:59:58;10.18;;;9.18;;
56045;SDS011;41913;51.030;3.706;2023-09-12T05:02:24;15.20;;;9.85;;
56045;SDS011;41913;51.030;3.706;2023-09-12T05:04:50;15.77;;;10.85;;
56045;SDS011;41913;51.030;3.706;2023-09-12T05:07:16;12.40;;;10.48;;
56045;SDS011;41913;51.030;3.706;2023-09-12T05:09:42;17.40;;;11.27;;
56045;SDS011;41913;51.030;3.706;2023-09-12T05:12:07;21.75;;;13.82;;
56045;SDS011;41913;51.030;3.706;2023-09-12T05:14:33;25.02;;;13.05;;
56045;SDS011;41913;51.030;3.706;2023-09-12T05:16:59;25.00;;;13.50;;
56045;SDS011;41913;51.030;3.706;2023-09-12T05:19:26;29.63;;;15.80;;
56045;SDS011;41913;51.030;3.706;2023-09-12T05:21:54;32.20;;;17.42;;
56045;SDS011;41913;51.030;3.706;2023-09-12T05:24:20;25.45;;;13.73;;
56045;SDS011;41913;51.030;3.706;2023-09-12T05:26:46;22.55;;;14.32;;
56045;SDS011;41913;51.030;3.706;2023-09-12T05:29:12;25.13;;;13.63;;
56045;SDS011;41913;51.030;3.706;2023-09-12T05:31:38;27.05;;;15.90;;
56045;SDS011;41913;51.030;3.706;2023-09-12T05:34:04;26.63;;;16.10;;
56045;SDS011;41913;51.030;3.706;2023-09-12T05:36:29;26.38;;;16.90;;
56045;SDS011;41913;51.030;3.706;2023-09-12T05:38:55;32.70;;;18.50;;
56045;SDS011;41913;51.030;3.706;2023-09-12T05:41:21;33.08;;;18.90;;
56045;SDS011;41913;51.030;3.706;2023-09-12T05:43:47;33.97;;;18.30;;
56045;SDS011;41913;51.030;3.706;2023-09-12T05:46:12;29.65;;;19.13;;
56045;SDS011;41913;51.030;3.706;2023-09-12T05:48:38;35.05;;;19.65;;
56045;SDS011;41913;51.030;3.706;2023-09-12T05:51:04;38.17;;;20.02;;
56045;SDS011;41913;51.030;3.706;2023-09-12T05:53:29;28.55;;;18.85;;
56045;SDS011;41913;51.030;3.706;2023-09-12T05:55:55;30.95;;;20.48;;
56045;SDS011;41913;51.030;3.706;2023-09-12T05:58:21;31.75;;;18.38;;
56045;SDS011;41913;51.030;3.706;2023-09-12T06:00:47;27.85;;;17.23;;
56045;SDS011;41913;51.030;3.706;2023-09-12T06:03:14;33.15;;;19.38;;
56045;SDS011;41913;51.030;3.706;2023-09-12T06:05:40;41.85;;;21.45;;
56045;SDS011;41913;51.030;3.706;2023-09-12T06:08:05;35.78;;;20.95;;
56045;SDS011;41913;51.030;3.706;2023-09-12T06:10:31;38.70;;;20.75;;
56045;SDS011;41913;51.030;3.706;2023-09-12T06:12:57;30.00;;;19.73;;
56045;SDS011;41913;51.030;3.706;2023-09-12T06:15:23;35.30;;;19.25;;
56045;SDS011;41913;51.030;3.706;2023-09-12T06:17:48;31.50;;;19.02;;
56045;SDS011;41913;51.030;3.706;2023-09-12T06:20:14;22.60;;;16.77;;
56045;SDS011;41913;51.030;3.706;2023-09-12T06:22:40;29.33;;;18.13;;
56045;SDS011;41913;51.030;3.706;2023-09-12T06:25:05;34.17;;;16.95;;
56045;SDS011;41913;51.030;3.706;2023-09-12T06:27:32;40.85;;;18.27;;
56045;SDS011;41913;51.030;3.706;2023-09-12T06:29:57;32.78;;;17.15;;
56045;SDS011;41913;51.030;3.706;2023-09-12T06:32:24;27.33;;;16.33;;
56045;SDS011;41913;51.030;3.706;2023-09-12T06:34:50;25.73;;;17.13;;
56045;SDS011;41913;51.030;3.706;2023-09-12T06:37:15;26.35;;;18.27;;
56045;SDS011;41913;51.030;3.706;2023-09-12T06:39:41;25.05;;;16.70;;
56045;SDS011;41913;51.030;3.706;2023-09-12T06:42:07;28.75;;;17.45;;
56045;SDS011;41913;51.030;3.706;2023-09-12T06:44:33;26.30;;;15.18;;
56045;SDS011;41913;51.030;3.706;2023-09-12T06:46:59;21.77;;;16.00;;
56045;SDS011;41913;51.030;3.706;2023-09-12T06:49:28;28.90;;;17.55;;
56045;SDS011;41913;51.030;3.706;2023-09-12T06:51:54;28.65;;;17.92;;
56045;SDS011;41913;51.030;3.706;2023-09-12T06:54:20;24.83;;;15.95;;
56045;SDS011;41913;51.030;3.706;2023-09-12T06:56:45;21.60;;;15.60;;
56045;SDS011;41913;51.030;3.706;2023-09-12T06:59:11;27.90;;;15.93;;
56045;SDS011;41913;51.030;3.706;2023-09-12T07:01:37;28.13;;;16.35;;
56045;SDS011;41913;51.030;3.706;2023-09-12T07:04:02;22.77;;;15.80;;
56045;SDS011;41913;51.030;3.706;2023-09-12T07:06:28;25.70;;;16.08;;
56045;SDS011;41913;51.030;3.706;2023-09-12T07:08:54;24.55;;;16.30;;
56045;SDS011;41913;51.030;3.706;2023-09-12T07:11:21;24.30;;;17.10;;
56045;SDS011;41913;51.030;3.706;2023-09-12T07:13:46;23.75;;;16.88;;
56045;SDS011;41913;51.030;3.706;2023-09-12T07:16:12;25.50;;;17.42;;
56045;SDS011;41913;51.030;3.706;2023-09-12T07:18:38;24.30;;;17.00;;
56045;SDS011;41913;51.030;3.706;2023-09-12T07:21:04;20.65;;;16.42;;
56045;SDS011;41913;51.030;3.706;2023-09-12T07:23:31;25.52;;;17.27;;
56045;SDS011;41913;51.030;3.706;2023-09-12T07:25:57;24.42;;;17.08;;
56045;SDS011;41913;51.030;3.706;2023-09-12T07:28:23;28.23;;;17.70;;
56045;SDS011;41913;51.030;3.706;2023-09-12T07:30:50;21.00;;;17.02;;
56045;SDS011;41913;51.030;3.706;2023-09-12T07:33:16;24.73;;;18.13;;
56045;SDS011;41913;51.030;3.706;2023-09-12T07:35:41;31.45;;;18.75;;
56045;SDS011;41913;51.030;3.706;2023-09-12T07:38:07;26.25;;;18.27;;
56045;SDS011;41913;51.030;3.706;2023-09-12T07:40:33;26.58;;;18.25;;
56045;SDS011;41913;51.030;3.706;2023-09-12T07:42:59;24.05;;;17.73;;
56045;SDS011;41913;51.030;3.706;2023-09-12T07:45:24;33.28;;;21.02;;
56045;SDS011;41913;51.030;3.706;2023-09-12T07:47:50;26.35;;;19.42;;
56045;SDS011;41913;51.030;3.706;2023-09-12T07:50:16;28.40;;;19.42;;
56045;SDS011;41913;51.030;3.706;2023-09-12T07:52:42;22.80;;;17.95;;
56045;SDS011;41913;51.030;3.706;2023-09-12T07:55:08;34.60;;;18.70;;
56045;SDS011;41913;51.030;3.706;2023-09-12T07:57:34;24.90;;;18.25;;
56045;SDS011;41913;51.030;3.706;2023-09-12T08:00:01;26.13;;;19.15;;
56045;SDS011;41913;51.030;3.706;2023-09-12T08:02:30;27.13;;;18.08;;
56045;SDS011;41913;51.030;3.706;2023-09-12T08:04:55;28.25;;;19.58;;
56045;SDS011;41913;51.030;3.706;2023-09-12T08:07:21;25.98;;;18.65;;
56045;SDS011;41913;51.030;3.706;2023-09-12T08:09:48;25.25;;;19.45;;
56045;SDS011;41913;51.030;3.706;2023-09-12T08:12:18;23.08;;;18.33;;
56045;SDS011;41913;51.030;3.706;2023-09-12T08:14:45;29.17;;;19.80;;
56045;SDS011;41913;51.030;3.706;2023-09-12T08:17:11;27.92;;;18.70;;
56045;SDS011;41913;51.030;3.706;2023-09-12T08:19:37;26.50;;;19.67;;
56045;SDS011;41913;51.030;3.706;2023-09-12T08:22:03;25.67;;;17.85;;
56045;SDS011;41913;51.030;3.706;2023-09-12T08:24:29;26.90;;;19.17;;
56045;SDS011;41913;51.030;3.706;2023-09-12T08:26:55;27.08;;;19.23;;
56045;SDS011;41913;51.030;3.706;2023-09-12T08:29:20;28.00;;;19.65;;
56045;SDS011;41913;51.030;3.706;2023-09-12T08:31:47;26.77;;;18.63;;
56045;SDS011;41913;51.030;3.706;2023-09-12T08:34:13;28.63;;;19.42;;
56045;SDS011;41913;51.030;3.706;2023-09-12T08:36:39;25.38;;;19.38;;
56045;SDS011;41913;51.030;3.706;2023-09-12T08:39:04;27.52;;;19.75;;
56045;SDS011;41913;51.030;3.706;2023-09-12T08:41:33;26.13;;;19.58;;
56045;SDS011;41913;51.030;3.706;2023-09-12T08:43:59;25.23;;;19.42;;
56045;SDS011;41913;51.030;3.706;2023-09-12T08:46:26;25.77;;;20.23;;
56045;SDS011;41913;51.030;3.706;2023-09-12T08:48:51;26.23;;;18.98;;
56045;SDS011;41913;51.030;3.706;2023-09-12T08:51:20;27.00;;;19.00;;
56045;SDS011;41913;51.030;3.706;2023-09-12T08:53:49;25.17;;;19.05;;
56045;SDS011;41913;51.030;3.706;2023-09-12T08:56:18;25.83;;;18.88;;
56045;SDS011;41913;51.030;3.706;2023-09-12T08:58:44;28.30;;;20.30;;
56045;SDS011;41913;51.030;3.706;2023-09-12T09:01:13;31.08;;;19.42;;
56045;SDS011;41913;51.030;3.706;2023-09-12T09:03:41;25.25;;;19.45;;
56045;SDS011;41913;51.030;3.706;2023-09-12T09:06:11;28.17;;;19.65;;
56045;SDS011;41913;51.030;3.706;2023-09-12T09:08:39;29.58;;;19.13;;
56045;SDS011;41913;51.030;3.706;2023-09-12T09:11:06;29.80;;;19.42;;
56045;SDS011;41913;51.030;3.706;2023-09-12T09:13:34;23.58;;;17.90;;
56045;SDS011;41913;51.030;3.706;2023-09-12T09:16:16;29.13;;;17.75;;
56045;SDS011;41913;51.030;3.706;2023-09-12T09:21:26;23.48;;;16.95;;
56045;SDS011;41913;51.030;3.706;2023-09-12T09:23:58;27.27;;;17.63;;
56045;SDS011;41913;51.030;3.706;2023-09-12T09:26:25;26.23;;;16.98;;
56045;SDS011;41913;51.030;3.706;2023-09-12T09:29:06;21.25;;;15.10;;
56045;SDS011;41913;51.030;3.706;2023-09-12T09:31:33;22.83;;;16.17;;
56045;SDS011;41913;51.030;3.706;2023-09-12T09:34:00;20.85;;;16.25;;
56045;SDS011;41913;51.030;3.706;2023-09-12T09:36:29;18.20;;;14.57;;
56045;SDS011;41913;51.030;3.706;2023-09-12T09:38:56;27.42;;;16.10;;
56045;SDS011;41913;51.030;3.706;2023-09-12T09:41:24;20.23;;;15.48;;
56045;SDS011;41913;51.030;3.706;2023-09-12T09:43:51;22.10;;;16.10;;
56045;SDS011;41913;51.030;3.706;2023-09-12T09:46:17;26.42;;;16.85;;
56045;SDS011;41913;51.030;3.706;2023-09-12T09:48:51;21.02;;;16.63;;
56045;SDS011;41913;51.030;3.706;2023-09-12T09:51:18;20.48;;;14.63;;
56045;SDS011;41913;51.030;3.706;2023-09-12T09:53:44;19.38;;;15.60;;
56045;SDS011;41913;51.030;3.706;2023-09-12T09:56:11;18.33;;;14.70;;
56045;SDS011;41913;51.030;3.706;2023-09-12T09:58:47;22.67;;;15.90;;
56045;SDS011;41913;51.030;3.706;2023-09-12T10:01:23;19.83;;;15.02;;
56045;SDS011;41913;51.030;3.706;2023-09-12T10:03:53;19.52;;;14.95;;
56045;SDS011;41913;51.030;3.706;2023-09-12T10:06:24;17.73;;;14.02;;
56045;SDS011;41913;51.030;3.706;2023-09-12T10:08:51;24.63;;;17.10;;
56045;SDS011;41913;51.030;3.706;2023-09-12T10:11:19;27.88;;;18.40;;
56045;SDS011;41913;51.030;3.706;2023-09-12T10:13:57;25.95;;;16.98;;
56045;SDS011;41913;51.030;3.706;2023-09-12T10:16:28;25.58;;;16.30;;
56045;SDS011;41913;51.030;3.706;2023-09-12T10:21:35;23.38;;;16.52;;
56045;SDS011;41913;51.030;3.706;2023-09-12T10:24:05;23.65;;;16.42;;
56045;SDS011;41913;51.030;3.706;2023-09-12T10:26:31;21.42;;;15.57;;
56045;SDS011;41913;51.030;3.706;2023-09-12T10:29:00;26.02;;;16.00;;
56045;SDS011;41913;51.030;3.706;2023-09-12T10:31:29;24.40;;;16.83;;
56045;SDS011;41913;51.030;3.706;2023-09-12T10:33:57;26.27;;;17.58;;
56045;SDS011;41913;51.030;3.706;2023-09-12T10:36:24;24.58;;;17.60;;
56045;SDS011;41913;51.030;3.706;2023-09-12T10:38:52;26.33;;;18.20;;
56045;SDS011;41913;51.030;3.706;2023-09-12T10:41:18;22.15;;;16.23;;
56045;SDS011;41913;51.030;3.706;2023-09-12T10:43:46;25.17;;;17.02;;
56045;SDS011;41913;51.030;3.706;2023-09-12T10:46:15;22.63;;;17.13;;
56045;SDS011;41913;51.030;3.706;2023-09-12T10:48:41;23.20;;;15.88;;
56045;SDS011;41913;51.030;3.706;2023-09-12T10:51:09;21.10;;;14.93;;
56045;SDS011;41913;51.030;3.706;2023-09-12T10:53:37;23.63;;;16.33;;
56045;SDS011;41913;51.030;3.706;2023-09-12T11:01:35;22.40;;;14.82;;
56045;SDS011;41913;51.030;3.706;2023-09-12T11:06:46;19.58;;;14.93;;
56045;SDS011;41913;51.030;3.706;2023-09-12T11:09:16;17.60;;;14.23;;
56045;SDS011;41913;51.030;3.706;2023-09-12T11:11:48;19.63;;;14.10;;
56045;SDS011;41913;51.030;3.706;2023-09-12T11:14:14;19.23;;;13.30;;
56045;SDS011;41913;51.030;3.706;2023-09-12T11:16:41;19.63;;;14.88;;
56045;SDS011;41913;51.030;3.706;2023-09-12T11:21:44;17.88;;;14.23;;
56045;SDS011;41913;51.030;3.706;2023-09-12T11:24:11;20.55;;;14.25;;
56045;SDS011;41913;51.030;3.706;2023-09-12T11:29:26;19.98;;;14.10;;
56045;SDS011;41913;51.030;3.706;2023-09-12T11:32:00;18.60;;;13.52;;
56045;SDS011;41913;51.030;3.706;2023-09-12T11:34:28;17.70;;;12.88;;
56045;SDS011;41913;51.030;3.706;2023-09-12T11:36:57;17.45;;;13.95;;
56045;SDS011;41913;51.030;3.706;2023-09-12T11:39:27;21.70;;;13.38;;
56045;SDS011;41913;51.030;3.706;2023-09-12T11:41:57;20.42;;;13.43;;
56045;SDS011;41913;51.030;3.706;2023-09-12T11:44:24;20.35;;;14.68;;
56045;SDS011;41913;51.030;3.706;2023-09-12T11:46:51;19.23;;;14.02;;
56045;SDS011;41913;51.030;3.706;2023-09-12T11:49:18;21.08;;;13.95;;
56045;SDS011;41913;51.030;3.706;2023-09-12T11:51:52;23.50;;;15.20;;
56045;SDS011;41913;51.030;3.706;2023-09-12T11:54:19;26.15;;;15.38;;
56045;SDS011;41913;51.030;3.706;2023-09-12T11:56:49;23.35;;;14.20;;
56045;SDS011;41913;51.030;3.706;2023-09-12T11:59:21;23.30;;;15.23;;
56045;SDS011;41913;51.030;3.706;2023-09-12T12:01:47;22.00;;;16.33;;
56045;SDS011;41913;51.030;3.706;2023-09-12T12:04:13;21.08;;;15.57;;
56045;SDS011;41913;51.030;3.706;2023-09-12T12:06:40;27.40;;;15.93;;
56045;SDS011;41913;51.030;3.706;2023-09-12T12:09:06;23.42;;;15.70;;
56045;SDS011;41913;51.030;3.706;2023-09-12T12:11:32;22.60;;;15.25;;
56045;SDS011;41913;51.030;3.706;2023-09-12T12:13:58;18.95;;;15.05;;
56045;SDS011;41913;51.030;3.706;2023-09-12T12:16:33;25.15;;;15.50;;
56045;SDS011;41913;51.030;3.706;2023-09-12T12:18:59;22.65;;;15.15;;
56045;SDS011;41913;51.030;3.706;2023-09-12T12:21:25;18.67;;;13.65;;
56045;SDS011;41913;51.030;3.706;2023-09-12T12:23:59;22.83;;;13.40;;
56045;SDS011;41913;51.030;3.706;2023-09-12T12:26:26;18.00;;;13.82;;
56045;SDS011;41913;51.030;3.706;2023-09-12T12:28:52;19.65;;;14.18;;
56045;SDS011;41913;51.030;3.706;2023-09-12T12:31:18;19.27;;;14.38;;
56045;SDS011;41913;51.030;3.706;2023-09-12T12:33:48;19.92;;;13.93;;
56045;SDS011;41913;51.030;3.706;2023-09-12T12:36:14;21.17;;;14.60;;
56045;SDS011;41913;51.030;3.706;2023-09-12T12:38:40;18.38;;;13.13;;
56045;SDS011;41913;51.030;3.706;2023-09-12T12:41:09;18.50;;;13.27;;
56045;SDS011;41913;51.030;3.706;2023-09-12T12:43:39;19.77;;;12.73;;
56045;SDS011;41913;51.030;3.706;2023-09-12T12:46:09;21.55;;;13.18;;
56045;SDS011;41913;51.030;3.706;2023-09-12T12:48:37;15.90;;;12.98;;
56045;SDS011;41913;51.030;3.706;2023-09-12T12:54:05;30.65;;;14.50;;
56045;SDS011;41913;51.030;3.706;2023-09-12T12:56:31;20.45;;;13.45;;
56045;SDS011;41913;51.030;3.706;2023-09-12T12:58:58;20.35;;;12.35;;
56045;SDS011;41913;51.030;3.706;2023-09-12T13:01:28;16.02;;;12.45;;
56045;SDS011;41913;51.030;3.706;2023-09-12T13:03:54;17.70;;;12.52;;
56045;SDS011;41913;51.030;3.706;2023-09-12T13:06:22;20.55;;;12.65;;
56045;SDS011;41913;51.030;3.706;2023-09-12T13:08:48;16.27;;;11.50;;
56045;SDS011;41913;51.030;3.706;2023-09-12T13:11:15;17.10;;;12.55;;
56045;SDS011;41913;51.030;3.706;2023-09-12T13:13:42;18.92;;;13.10;;
56045;SDS011;41913;51.030;3.706;2023-09-12T13:16:09;15.98;;;11.70;;
56045;SDS011;41913;51.030;3.706;2023-09-12T13:18:36;18.85;;;12.35;;
56045;SDS011;41913;51.030;3.706;2023-09-12T13:21:02;17.42;;;12.57;;
56045;SDS011;41913;51.030;3.706;2023-09-12T13:23:29;16.58;;;11.18;;
56045;SDS011;41913;51.030;3.706;2023-09-12T13:25:55;13.75;;;11.02;;
56045;SDS011;41913;51.030;3.706;2023-09-12T13:28:22;17.27;;;11.90;;
56045;SDS011;41913;51.030;3.706;2023-09-12T13:30:51;16.17;;;11.32;;
56045;SDS011;41913;51.030;3.706;2023-09-12T13:33:18;14.52;;;11.35;;
56045;SDS011;41913;51.030;3.706;2023-09-12T13:35:44;14.77;;;11.38;;
56045;SDS011;41913;51.030;3.706;2023-09-12T13:38:09;19.80;;;11.18;;
56045;SDS011;41913;51.030;3.706;2023-09-12T13:40:40;15.85;;;11.55;;
56045;SDS011;41913;51.030;3.706;2023-09-12T13:43:07;12.98;;;11.48;;
56045;SDS011;41913;51.030;3.706;2023-09-12T13:45:33;12.18;;;10.88;;
56045;SDS011;41913;51.030;3.706;2023-09-12T13:48:00;14.13;;;10.88;;
56045;SDS011;41913;51.030;3.706;2023-09-12T13:50:28;13.88;;;11.25;;
56045;SDS011;41913;51.030;3.706;2023-09-12T13:52:54;13.63;;;11.85;;
56045;SDS011;41913;51.030;3.706;2023-09-12T13:55:33;14.27;;;11.98;;
56045;SDS011;41913;51.030;3.706;2023-09-12T13:58:01;13.75;;;11.43;;
56045;SDS011;41913;51.030;3.706;2023-09-12T14:00:27;15.52;;;11.73;;
56045;SDS011;41913;51.030;3.706;2023-09-12T14:02:53;13.25;;;11.52;;
56045;SDS011;41913;51.030;3.706;2023-09-12T14:05:18;13.30;;;11.18;;
56045;SDS011;41913;51.030;3.706;2023-09-12T14:07:44;18.95;;;11.20;;
56045;SDS011;41913;51.030;3.706;2023-09-12T14:10:10;16.52;;;12.07;;
56045;SDS011;41913;51.030;3.706;2023-09-12T14:12:36;18.17;;;11.57;;
56045;SDS011;41913;51.030;3.706;2023-09-12T14:15:01;17.15;;;11.50;;
56045;SDS011;41913;51.030;3.706;2023-09-12T14:17:28;21.23;;;11.55;;
56045;SDS011;41913;51.030;3.706;2023-09-12T14:19:54;13.73;;;10.88;;
56045;SDS011;41913;51.030;3.706;2023-09-12T14:22:20;20.58;;;11.98;;
56045;SDS011;41913;51.030;3.706;2023-09-12T14:24:46;13.75;;;11.95;;
56045;SDS011;41913;51.030;3.706;2023-09-12T14:27:13;14.75;;;10.73;;
56045;SDS011;41913;51.030;3.706;2023-09-12T14:29:39;16.83;;;12.02;;
56045;SDS011;41913;51.030;3.706;2023-09-12T14:32:05;17.48;;;11.73;;
56045;SDS011;41913;51.030;3.706;2023-09-12T14:34:30;12.27;;;10.63;;
56045;SDS011;41913;51.030;3.706;2023-09-12T14:36:58;12.27;;;10.82;;
56045;SDS011;41913;51.030;3.706;2023-09-12T14:39:24;17.58;;;11.32;;
56045;SDS011;41913;51.030;3.706;2023-09-12T14:41:50;15.55;;;12.32;;
56045;SDS011;41913;51.030;3.706;2023-09-12T14:44:20;13.75;;;11.85;;
56045;SDS011;41913;51.030;3.706;2023-09-12T14:46:46;14.60;;;11.32;;
56045;SDS011;41913;51.030;3.706;2023-09-12T14:49:11;14.65;;;11.55;;
56045;SDS011;41913;51.030;3.706;2023-09-12T14:51:38;13.90;;;11.88;;